createdAt,value
2023-02-15T00:02:02.466Z,66.35
2023-02-15T00:04:47.732Z,52.03
2023-02-15T00:07:19.164Z,75.60
2023-02-15T00:09:49.261Z,52.97
2023-02-15T00:12:17.260Z,40.22
2023-02-15T00:14:44.036Z,98.50
2023-02-15T00:17:10.883Z,86.60
2023-02-15T00:19:37.739Z,58.72
2023-02-15T00:22:04.545Z,37.40
2023-02-15T00:24:31.288Z,41.60
2023-02-15T00:26:58.169Z,31.80
2023-02-15T00:29:24.942Z,40.08
2023-02-15T00:31:53.151Z,51.83
2023-02-15T00:34:22.643Z,43.30
2023-02-15T00:36:49.703Z,37.92
2023-02-15T00:39:17.988Z,46.42
2023-02-15T00:41:45.885Z,24.67
2023-02-15T00:44:13.576Z,35.53
2023-02-15T00:46:40.599Z,47.28
2023-02-15T00:49:07.411Z,43.97
2023-02-15T00:51:34.263Z,61.78
2023-02-15T00:54:01.091Z,41.72
2023-02-15T00:56:29.426Z,64.32
2023-02-15T00:58:58.765Z,32.55
2023-02-15T01:01:26.850Z,36.00
2023-02-15T01:03:53.912Z,44.90
2023-02-15T01:06:20.779Z,63.88
2023-02-15T01:08:47.738Z,57.70
2023-02-15T01:11:23.348Z,29.60
2023-02-15T01:13:58.461Z,39.75
2023-02-15T01:16:27.655Z,50.92
2023-02-15T01:18:55.728Z,55.80
2023-02-15T01:21:24.680Z,38.85
2023-02-15T01:23:51.521Z,76.82
2023-02-15T01:26:18.833Z,59.00
2023-02-15T01:28:46.108Z,70.18
2023-02-15T01:31:16.566Z,77.10
2023-02-15T01:33:43.966Z,28.27
2023-02-15T01:36:11.508Z,36.92
2023-02-15T01:38:38.357Z,115.50
2023-02-15T01:41:23.619Z,31.17
2023-02-15T01:43:57.362Z,32.38
2023-02-15T01:46:52.837Z,37.03
2023-02-15T01:49:24.837Z,47.75
2023-02-15T01:51:53.931Z,29.10
2023-02-15T01:54:26.212Z,38.83
2023-02-15T01:56:55.126Z,46.55
2023-02-15T01:59:24.475Z,78.90
2023-02-15T02:01:57.558Z,48.40
2023-02-15T02:04:45.190Z,46.03
2023-02-15T02:07:15.438Z,48.55
2023-02-15T02:09:42.406Z,78.32
2023-02-15T02:12:10.400Z,67.20
2023-02-15T02:14:38.631Z,97.90
2023-02-15T02:17:14.407Z,95.18
2023-02-15T02:20:04.755Z,68.47
2023-02-15T02:23:02.184Z,67.50
2023-02-15T02:26:00.898Z,39.05
2023-02-15T02:29:02.437Z,27.25
2023-02-15T02:31:45.541Z,47.53
2023-02-15T02:34:31.027Z,44.63
2023-02-15T02:37:05.133Z,36.78
2023-02-15T02:39:45.637Z,30.27
2023-02-15T02:42:21.654Z,48.90
2023-02-15T02:44:55.375Z,65.43
2023-02-15T02:47:30.005Z,29.50
2023-02-15T02:50:04.237Z,24.52
2023-02-15T02:52:33.973Z,37.03
2023-02-15T02:55:02.496Z,26.10
2023-02-15T02:57:31.486Z,67.72
2023-02-15T03:00:03.762Z,64.70
2023-02-15T03:05:07.252Z,50.38
2023-02-15T03:07:36.910Z,43.90
2023-02-15T03:10:06.152Z,66.35
2023-02-15T03:12:36.380Z,52.97
2023-02-15T03:15:17.065Z,30.80
2023-02-15T03:17:50.276Z,41.40
2023-02-15T03:20:30.638Z,97.50
2023-02-15T03:23:11.099Z,48.00
2023-02-15T03:25:42.976Z,86.78
2023-02-15T03:28:16.780Z,92.53
2023-02-15T03:30:46.963Z,80.95
2023-02-15T03:33:15.943Z,65.05
2023-02-15T03:36:05.328Z,61.63
2023-02-15T03:38:46.021Z,48.20
2023-02-15T03:41:15.674Z,111.05
2023-02-15T03:43:57.537Z,32.70
2023-02-15T03:46:48.215Z,45.53
2023-02-15T03:49:44.877Z,32.10
2023-02-15T03:52:14.098Z,54.50
2023-02-15T03:54:44.573Z,32.15
2023-02-15T03:57:40.551Z,92.72
2023-02-15T04:00:39.383Z,62.38
2023-02-15T04:03:32.239Z,42.42
2023-02-15T04:05:59.226Z,56.25
2023-02-15T04:08:46.069Z,36.15
2023-02-15T04:11:12.774Z,36.95
2023-02-15T04:13:39.929Z,34.38
2023-02-15T04:16:07.903Z,41.67
2023-02-15T04:18:57.572Z,48.75
2023-02-15T04:21:44.504Z,48.22
2023-02-15T04:24:30.484Z,42.15
2023-02-15T04:26:57.797Z,62.67
2023-02-15T04:29:26.020Z,60.90
2023-02-15T04:31:54.543Z,43.35
2023-02-15T04:34:21.952Z,86.55
2023-02-15T04:36:48.681Z,62.72
2023-02-15T04:39:16.532Z,105.32
2023-02-15T04:41:43.665Z,54.95
2023-02-15T04:44:11.201Z,49.17
2023-02-15T04:46:38.329Z,33.60
2023-02-15T04:49:05.079Z,32.58
2023-02-15T04:51:31.888Z,62.10
2023-02-15T04:53:58.685Z,46.20
2023-02-15T04:56:25.456Z,44.92
2023-02-15T04:58:52.209Z,36.80
2023-02-15T05:01:19.407Z,39.50
2023-02-15T05:03:46.164Z,49.83
2023-02-15T05:06:12.896Z,44.28
2023-02-15T05:08:39.645Z,41.28
2023-02-15T05:11:06.406Z,43.03
2023-02-15T05:13:33.249Z,39.65
2023-02-15T05:16:00.276Z,34.35
2023-02-15T05:18:27.388Z,32.40
2023-02-15T05:20:54.274Z,46.53
2023-02-15T05:23:21.074Z,44.88
2023-02-15T05:26:07.880Z,45.30
2023-02-15T05:28:36.303Z,34.30
2023-02-15T05:31:13.903Z,42.70
2023-02-15T05:33:41.543Z,33.65
2023-02-15T05:36:09.138Z,44.20
2023-02-15T05:38:42.273Z,31.52
2023-02-15T05:41:14.694Z,26.33
2023-02-15T05:43:41.431Z,39.22
2023-02-15T05:46:08.806Z,26.63
2023-02-15T05:48:36.030Z,30.35
2023-02-15T05:51:05.516Z,34.00
2023-02-15T05:53:34.466Z,37.15
2023-02-15T05:56:03.363Z,45.28
2023-02-15T05:58:38.803Z,23.50
2023-02-15T06:01:13.874Z,29.52
2023-02-15T06:03:41.438Z,25.50
2023-02-15T06:06:08.726Z,25.40
2023-02-15T06:08:36.849Z,32.90
2023-02-15T06:11:03.709Z,31.65
2023-02-15T06:13:31.415Z,33.90
2023-02-15T06:15:58.236Z,22.42
2023-02-15T06:18:25.219Z,31.75
2023-02-15T06:20:51.923Z,27.42
2023-02-15T06:23:18.776Z,23.13
2023-02-15T06:25:46.801Z,19.92
2023-02-15T06:28:14.105Z,20.40
2023-02-15T06:30:40.977Z,24.75
2023-02-15T06:33:07.793Z,28.20
2023-02-15T06:35:34.616Z,17.15
2023-02-15T06:38:01.362Z,22.23
2023-02-15T06:40:28.073Z,21.55
2023-02-15T06:42:54.834Z,25.58
2023-02-15T06:45:21.779Z,18.60
2023-02-15T06:47:48.505Z,19.15
2023-02-15T06:50:15.228Z,19.42
2023-02-15T06:52:42.034Z,25.30
2023-02-15T06:55:08.843Z,31.50
2023-02-15T06:57:35.616Z,22.75
2023-02-15T07:00:02.562Z,31.40
2023-02-15T07:02:29.905Z,30.13
2023-02-15T07:04:56.655Z,31.33
2023-02-15T07:07:23.441Z,44.40
2023-02-15T07:09:50.212Z,21.85
2023-02-15T07:12:35.473Z,20.25
2023-02-15T07:15:02.574Z,38.50
2023-02-15T07:17:37.103Z,19.83
2023-02-15T07:20:12.412Z,21.13
2023-02-15T07:22:39.508Z,26.35
2023-02-15T07:25:08.616Z,26.33
2023-02-15T07:27:35.646Z,22.10
2023-02-15T07:30:03.034Z,29.48
2023-02-15T07:32:31.232Z,23.75
2023-02-15T07:34:58.676Z,24.48
2023-02-15T07:37:25.601Z,29.50
2023-02-15T07:39:52.464Z,21.27
2023-02-15T07:42:20.787Z,27.55
2023-02-15T07:44:47.885Z,26.73
2023-02-15T07:47:14.717Z,24.45
2023-02-15T07:49:41.500Z,24.35
2023-02-15T07:52:08.280Z,25.30
2023-02-15T07:54:35.019Z,34.67
2023-02-15T07:57:02.726Z,23.23
2023-02-15T07:59:29.411Z,26.65
2023-02-15T08:01:57.526Z,18.00
2023-02-15T08:04:25.144Z,22.02
2023-02-15T08:06:55.290Z,23.48
2023-02-15T08:09:22.596Z,19.17
2023-02-15T08:11:49.734Z,18.05
2023-02-15T08:14:21.680Z,17.75
2023-02-15T08:16:53.445Z,21.98
2023-02-15T08:19:26.252Z,20.83
2023-02-15T08:21:58.300Z,27.40
2023-02-15T08:24:27.114Z,16.73
2023-02-15T08:26:54.490Z,18.75
2023-02-15T08:29:23.578Z,18.05
2023-02-15T08:31:53.632Z,21.58
2023-02-15T08:34:21.449Z,17.42
2023-02-15T08:36:48.299Z,17.90
2023-02-15T08:39:16.039Z,22.17
2023-02-15T08:41:44.926Z,17.35
2023-02-15T08:44:12.350Z,35.25
2023-02-15T08:46:42.495Z,23.55
2023-02-15T08:49:11.297Z,18.05
2023-02-15T08:51:39.576Z,27.08
2023-02-15T08:54:10.384Z,17.63
2023-02-15T08:56:39.309Z,18.95
2023-02-15T08:59:07.599Z,22.02
2023-02-15T09:01:35.785Z,22.83
2023-02-15T09:04:06.357Z,21.77
2023-02-15T09:06:33.736Z,26.02
2023-02-15T09:09:00.564Z,16.08
2023-02-15T09:11:33.709Z,16.08
2023-02-15T09:14:05.764Z,18.40
2023-02-15T09:16:34.656Z,18.55
2023-02-15T09:19:07.670Z,18.45
2023-02-15T09:21:36.745Z,21.05
2023-02-15T09:24:12.112Z,25.80
2023-02-15T09:26:41.876Z,19.38
2023-02-15T09:29:10.176Z,20.92
2023-02-15T09:31:49.786Z,22.00
2023-02-15T09:34:20.352Z,16.35
2023-02-15T09:36:48.093Z,25.08
2023-02-15T09:39:26.758Z,18.95
2023-02-15T09:41:56.388Z,21.30
2023-02-15T09:44:38.356Z,19.52
2023-02-15T09:47:08.770Z,22.80
2023-02-15T09:50:07.213Z,18.20
2023-02-15T09:52:58.857Z,17.52
2023-02-15T09:56:03.204Z,16.33
2023-02-15T09:58:54.647Z,20.70
2023-02-15T10:01:33.445Z,21.17
2023-02-15T10:04:16.912Z,18.90
2023-02-15T10:07:03.745Z,17.95
2023-02-15T10:09:54.548Z,19.42
2023-02-15T10:13:01.856Z,18.38
2023-02-15T10:15:53.081Z,19.70
2023-02-15T10:18:38.759Z,16.40
2023-02-15T10:21:30.806Z,19.58
2023-02-15T10:24:15.877Z,16.38
2023-02-15T10:26:46.371Z,18.30
2023-02-15T10:29:39.397Z,19.08
2023-02-15T10:32:25.918Z,24.77
2023-02-15T10:35:04.657Z,20.70
2023-02-15T10:37:56.236Z,18.58
2023-02-15T10:40:48.117Z,14.95
2023-02-15T10:43:26.409Z,17.58
2023-02-15T10:46:25.303Z,20.02
2023-02-15T10:49:01.665Z,16.38
2023-02-15T10:51:46.617Z,17.67
2023-02-15T10:54:43.845Z,19.23
2023-02-15T10:57:41.664Z,20.63
2023-02-15T11:00:23.502Z,18.38
2023-02-15T11:03:24.571Z,19.92
2023-02-15T11:06:03.559Z,21.25
2023-02-15T11:08:35.565Z,19.80
2023-02-15T11:11:10.574Z,23.42
2023-02-15T11:13:44.139Z,21.80
2023-02-15T11:16:37.791Z,20.65
2023-02-15T11:19:17.521Z,20.75
2023-02-15T11:21:50.837Z,22.10
2023-02-15T11:24:23.833Z,19.33
2023-02-15T11:27:13.816Z,21.25
2023-02-15T11:30:03.856Z,21.40
2023-02-15T11:32:39.751Z,20.88
2023-02-15T11:35:12.685Z,18.98
2023-02-15T11:37:42.391Z,21.02
2023-02-15T11:40:33.022Z,23.27
2023-02-15T11:43:14.652Z,19.05
2023-02-15T11:45:44.120Z,19.42
2023-02-15T11:48:13.514Z,19.80
2023-02-15T11:50:41.862Z,16.60
2023-02-15T11:53:18.772Z,17.13
2023-02-15T11:55:47.649Z,16.75
2023-02-15T11:58:55.621Z,17.90
2023-02-15T12:01:25.741Z,18.20
2023-02-15T12:04:26.431Z,15.93
2023-02-15T12:07:03.515Z,17.73
2023-02-15T12:09:39.774Z,15.15
2023-02-15T12:12:24.375Z,18.48
2023-02-15T12:14:53.840Z,20.25
2023-02-15T12:17:30.246Z,19.33
2023-02-15T12:20:01.764Z,15.93
2023-02-15T12:22:33.101Z,18.67
2023-02-15T12:25:03.098Z,18.52
2023-02-15T12:27:33.200Z,20.42
2023-02-15T12:30:03.235Z,19.42
2023-02-15T12:32:35.659Z,18.13
2023-02-15T12:35:15.426Z,17.15
2023-02-15T12:37:57.915Z,15.73
2023-02-15T12:40:31.624Z,15.82
2023-02-15T12:42:58.835Z,19.17
2023-02-15T12:45:31.515Z,16.55
2023-02-15T12:48:13.441Z,16.08
2023-02-15T12:50:42.222Z,15.77
2023-02-15T12:53:21.869Z,16.70
2023-02-15T12:55:58.957Z,15.93
2023-02-15T12:58:28.178Z,16.35
2023-02-15T13:01:10.507Z,15.48
2023-02-15T13:03:47.824Z,18.35
2023-02-15T13:06:14.585Z,16.55
2023-02-15T13:08:49.589Z,18.45
2023-02-15T13:11:31.323Z,15.52
2023-02-15T13:14:03.930Z,16.27
2023-02-15T13:16:37.690Z,23.08
2023-02-15T13:19:17.107Z,14.55
2023-02-15T13:21:49.475Z,18.15
2023-02-15T13:24:19.884Z,18.05
2023-02-15T13:26:48.327Z,19.58
2023-02-15T13:29:34.296Z,18.67
2023-02-15T13:32:31.156Z,16.92
2023-02-15T13:35:06.131Z,16.48
2023-02-15T13:37:45.441Z,13.40
2023-02-15T13:40:27.382Z,17.92
2023-02-15T13:42:59.571Z,17.05
2023-02-15T13:45:55.676Z,15.57
2023-02-15T13:48:51.454Z,19.05
2023-02-15T13:51:27.658Z,19.52
2023-02-15T13:54:10.712Z,14.35
2023-02-15T13:57:07.797Z,13.90
2023-02-15T13:59:46.724Z,17.48
2023-02-15T14:02:16.546Z,12.82
2023-02-15T14:05:23.222Z,15.65
2023-02-15T14:08:12.538Z,15.77
2023-02-15T14:10:51.655Z,16.33
2023-02-15T14:13:40.065Z,16.15
2023-02-15T14:16:13.061Z,18.15
2023-02-15T14:18:39.832Z,16.92
2023-02-15T14:21:22.796Z,14.48
2023-02-15T14:24:22.912Z,15.77
2023-02-15T14:27:09.744Z,16.83
2023-02-15T14:29:47.518Z,17.63
2023-02-15T14:32:21.800Z,13.32
2023-02-15T14:34:56.400Z,13.27
2023-02-15T14:37:45.778Z,17.98
2023-02-15T14:41:02.022Z,16.40
2023-02-15T14:43:47.480Z,15.32
2023-02-15T14:46:23.878Z,17.83
2023-02-15T14:48:57.324Z,16.85
2023-02-15T14:51:57.648Z,18.63
2023-02-15T14:54:24.389Z,17.33
2023-02-15T14:57:03.418Z,16.88
2023-02-15T14:59:36.021Z,15.88
2023-02-15T15:02:08.777Z,15.13
2023-02-15T15:04:43.720Z,15.60
2023-02-15T15:07:13.422Z,16.00
2023-02-15T15:09:43.117Z,19.25
2023-02-15T15:12:23.260Z,18.42
2023-02-15T15:14:51.077Z,15.15
2023-02-15T15:17:38.939Z,15.40
2023-02-15T15:20:14.431Z,17.52
2023-02-15T15:22:43.590Z,18.42
2023-02-15T15:25:31.078Z,14.73
2023-02-15T15:27:57.881Z,17.90
2023-02-15T15:30:24.666Z,17.77
2023-02-15T15:32:57.853Z,18.05
2023-02-15T15:36:03.717Z,16.02
2023-02-15T15:39:04.779Z,17.30
2023-02-15T15:42:06.837Z,17.77
2023-02-15T15:45:01.875Z,12.05
2023-02-15T15:48:07.764Z,16.38
2023-02-15T15:50:35.265Z,18.70
2023-02-15T15:53:04.273Z,15.90
2023-02-15T15:55:33.419Z,18.33
2023-02-15T15:58:09.821Z,15.45
2023-02-15T16:00:45.642Z,17.67
2023-02-15T16:03:26.711Z,17.85
2023-02-15T16:05:56.330Z,16.05
2023-02-15T16:08:41.044Z,19.55
2023-02-15T16:11:30.233Z,15.85
2023-02-15T16:13:57.278Z,16.60
2023-02-15T16:16:29.097Z,18.35
2023-02-15T16:19:01.180Z,17.42
2023-02-15T16:21:35.258Z,18.08
2023-02-15T16:24:23.651Z,18.33
2023-02-15T16:27:34.994Z,17.70
2023-02-15T16:30:20.629Z,19.60
2023-02-15T16:32:47.682Z,20.55
2023-02-15T16:35:17.525Z,21.95
2023-02-15T16:37:44.890Z,21.20
2023-02-15T16:40:33.733Z,18.75
2023-02-15T16:43:09.710Z,20.92
2023-02-15T16:45:39.224Z,22.35
2023-02-15T16:48:15.323Z,19.50
2023-02-15T16:50:52.391Z,21.85
2023-02-15T16:53:25.868Z,21.58
2023-02-15T16:55:56.134Z,21.98
2023-02-15T16:58:28.515Z,23.75
2023-02-15T17:01:00.884Z,24.00
2023-02-15T17:03:28.755Z,24.73
2023-02-15T17:06:00.901Z,25.50
2023-02-15T17:11:00.802Z,25.55
2023-02-15T17:13:28.873Z,21.70
2023-02-15T17:16:02.054Z,24.48
2023-02-15T17:18:34.097Z,25.17
2023-02-15T17:21:11.806Z,23.35
2023-02-15T17:23:45.862Z,28.02
2023-02-15T17:26:25.017Z,25.73
2023-02-15T17:29:21.266Z,25.02
2023-02-15T17:31:51.744Z,28.95
2023-02-15T17:34:42.062Z,29.75
2023-02-15T17:37:25.269Z,24.30
2023-02-15T17:39:52.113Z,25.50
2023-02-15T17:42:18.885Z,25.95
2023-02-15T17:44:45.693Z,25.38
2023-02-15T17:47:27.773Z,29.92
2023-02-15T17:49:54.945Z,30.67
2023-02-15T17:52:21.720Z,26.95
2023-02-15T17:55:06.884Z,31.15
2023-02-15T17:57:33.646Z,28.60
2023-02-15T18:00:18.992Z,29.33
2023-02-15T18:03:05.538Z,30.15
2023-02-15T18:05:51.042Z,32.90
2023-02-15T18:08:39.181Z,36.22
2023-02-15T18:11:24.577Z,35.70
2023-02-15T18:13:51.338Z,32.83
2023-02-15T18:16:24.545Z,33.83
2023-02-15T18:18:52.196Z,37.25
2023-02-15T18:21:20.463Z,37.50
2023-02-15T18:23:47.274Z,38.15
2023-02-15T18:26:22.409Z,45.40
2023-02-15T18:28:50.340Z,38.70
2023-02-15T18:31:19.110Z,41.00
2023-02-15T18:33:49.046Z,38.20
2023-02-15T18:36:28.139Z,35.78
2023-02-15T18:38:58.599Z,39.67
2023-02-15T18:41:25.449Z,37.75
2023-02-15T18:43:53.936Z,41.28
2023-02-15T18:46:21.233Z,36.03
2023-02-15T18:48:48.095Z,34.03
2023-02-15T18:51:23.559Z,35.40
2023-02-15T18:53:53.873Z,36.45
2023-02-15T18:56:23.000Z,36.15
2023-02-15T18:58:49.916Z,34.75
2023-02-15T19:01:19.839Z,33.83
2023-02-15T19:03:51.626Z,30.52
2023-02-15T19:06:24.914Z,37.97
2023-02-15T19:08:53.085Z,34.75
2023-02-15T19:11:23.272Z,42.95
2023-02-15T19:13:52.094Z,38.33
2023-02-15T19:16:27.479Z,39.72
2023-02-15T19:18:54.528Z,44.10
2023-02-15T19:21:21.463Z,65.32
2023-02-15T19:23:58.127Z,45.05
2023-02-15T19:26:36.297Z,46.65
2023-02-15T19:29:13.537Z,56.55
2023-02-15T19:31:40.666Z,56.83
2023-02-15T19:34:15.772Z,50.90
2023-02-15T19:36:44.847Z,71.63
2023-02-15T19:39:29.909Z,49.53
2023-02-15T19:41:56.916Z,65.95
2023-02-15T19:44:23.738Z,69.75
2023-02-15T19:46:50.536Z,63.88
2023-02-15T19:49:17.366Z,68.03
2023-02-15T19:51:44.320Z,57.95
2023-02-15T19:54:33.131Z,56.83
2023-02-15T19:57:00.159Z,34.88
2023-02-15T19:59:33.012Z,50.83
2023-02-15T20:02:00.321Z,48.03
2023-02-15T20:04:27.595Z,38.80
2023-02-15T20:07:01.191Z,33.53
2023-02-15T20:09:40.851Z,30.48
2023-02-15T20:12:29.619Z,31.83
2023-02-15T20:14:58.184Z,25.75
2023-02-15T20:17:24.953Z,32.15
2023-02-15T20:19:51.826Z,26.48
2023-02-15T20:22:27.401Z,28.60
2023-02-15T20:24:56.256Z,30.88
2023-02-15T20:27:24.061Z,26.65
2023-02-15T20:29:50.942Z,30.58
2023-02-15T20:32:17.895Z,27.92
2023-02-15T20:34:44.706Z,26.42
2023-02-15T20:37:26.340Z,27.20
2023-02-15T20:39:53.220Z,26.48
2023-02-15T20:42:19.984Z,25.10
2023-02-15T20:44:46.901Z,28.65
2023-02-15T20:47:13.660Z,27.65
2023-02-15T20:49:40.418Z,41.83
2023-02-15T20:52:19.646Z,41.70
2023-02-15T20:54:46.574Z,29.00
2023-02-15T20:57:13.592Z,28.85
2023-02-15T20:59:41.288Z,30.90
2023-02-15T21:02:23.913Z,27.73
2023-02-15T21:04:51.276Z,26.48
2023-02-15T21:07:20.522Z,28.30
2023-02-15T21:09:48.359Z,27.08
2023-02-15T21:12:17.934Z,27.45
2023-02-15T21:14:45.321Z,30.65
2023-02-15T21:17:14.004Z,30.83
2023-02-15T21:19:41.520Z,30.20
2023-02-15T21:22:13.423Z,30.67
2023-02-15T21:24:47.819Z,32.15
2023-02-15T21:27:15.365Z,30.27
2023-02-15T21:29:42.234Z,28.45
2023-02-15T21:32:10.555Z,29.40
2023-02-15T21:34:37.423Z,33.20
2023-02-15T21:37:05.229Z,29.65
2023-02-15T21:39:35.663Z,33.50
2023-02-15T21:42:21.765Z,29.88
2023-02-15T21:45:07.302Z,29.55
2023-02-15T21:47:52.290Z,35.03
2023-02-15T21:50:39.193Z,34.33
2023-02-15T21:53:08.618Z,30.52
2023-02-15T21:55:35.669Z,31.85
2023-02-15T21:58:02.764Z,28.00
2023-02-15T22:00:30.754Z,26.98
2023-02-15T22:02:59.751Z,31.95
2023-02-15T22:05:33.272Z,46.50
2023-02-15T22:08:00.512Z,54.13
2023-02-15T22:10:32.805Z,50.28
2023-02-15T22:13:03.598Z,50.25
2023-02-15T22:15:37.679Z,48.72
2023-02-15T22:18:05.644Z,35.55
2023-02-15T22:20:32.588Z,33.03
2023-02-15T22:22:59.311Z,38.42
2023-02-15T22:25:26.696Z,31.83
2023-02-15T22:27:54.727Z,31.30
2023-02-15T22:30:29.089Z,31.23
2023-02-15T22:32:57.574Z,29.85
2023-02-15T22:35:32.927Z,33.08
2023-02-15T22:38:00.313Z,31.15
2023-02-15T22:40:33.356Z,35.67
2023-02-15T22:43:02.743Z,34.10
2023-02-15T22:45:32.552Z,31.55
2023-02-15T22:48:00.646Z,30.42
2023-02-15T22:50:30.287Z,29.45
2023-02-15T22:53:02.066Z,33.38
2023-02-15T22:55:33.619Z,32.72
2023-02-15T22:58:01.094Z,31.52
2023-02-15T23:00:32.474Z,38.58
2023-02-15T23:02:59.406Z,38.22
2023-02-15T23:05:29.062Z,35.72
2023-02-15T23:07:56.372Z,31.77
2023-02-15T23:10:25.263Z,33.83
2023-02-15T23:13:18.311Z,32.03
2023-02-15T23:15:54.462Z,35.05
2023-02-15T23:18:27.945Z,33.90
2023-02-15T23:20:56.514Z,34.92
2023-02-15T23:23:34.743Z,32.22
2023-02-15T23:26:04.314Z,32.20
2023-02-15T23:28:35.925Z,31.65
2023-02-15T23:31:06.387Z,29.10
2023-02-15T23:33:35.010Z,34.55
2023-02-15T23:36:01.883Z,36.15
2023-02-15T23:38:30.726Z,42.00
2023-02-15T23:41:19.557Z,40.05
2023-02-15T23:43:50.128Z,38.33
2023-02-15T23:46:48.404Z,38.53
2023-02-15T23:49:18.015Z,37.90
2023-02-15T23:51:46.236Z,37.20
2023-02-15T23:54:14.603Z,29.00
2023-02-15T23:56:42.958Z,34.20
2023-02-15T23:59:19.275Z,29.08
